createdAt,value
2023-04-06T00:00:12.345Z,80.02
2023-04-06T00:01:12.271Z,80.12
2023-04-06T00:02:12.309Z,80.12
2023-04-06T00:03:12.384Z,80.12
2023-04-06T00:04:12.362Z,80.12
2023-04-06T00:05:12.226Z,80.12
2023-04-06T00:06:12.226Z,80.22
2023-04-06T00:07:12.210Z,80.43
2023-04-06T00:08:12.202Z,80.02
2023-04-06T00:09:12.167Z,79.91
2023-04-06T00:10:12.184Z,80.02
2023-04-06T00:11:12.153Z,80.12
2023-04-06T00:12:12.161Z,80.12
2023-04-06T00:13:12.109Z,79.91
2023-04-06T00:14:12.121Z,79.70
2023-04-06T00:15:12.125Z,79.70
2023-04-06T00:16:12.132Z,79.70
2023-04-06T00:17:12.220Z,79.70
2023-04-06T00:18:12.132Z,79.70
2023-04-06T00:19:12.085Z,79.70
2023-04-06T00:20:12.074Z,79.60
2023-04-06T00:21:12.037Z,79.60
2023-04-06T00:22:12.229Z,79.49
2023-04-06T00:23:12.025Z,79.28
2023-04-06T00:24:12.069Z,79.08
2023-04-06T00:25:12.131Z,79.01
2023-04-06T00:26:12.677Z,79.11
2023-04-06T00:27:11.980Z,79.11
2023-04-06T00:28:11.966Z,79.53
2023-04-06T00:29:11.977Z,79.43
2023-04-06T00:30:11.963Z,79.01
2023-04-06T00:31:11.958Z,79.01
2023-04-06T00:32:12.009Z,79.11
2023-04-06T00:33:11.962Z,79.43
2023-04-06T00:34:12.005Z,79.43
2023-04-06T00:35:11.902Z,79.32
2023-04-06T00:36:11.945Z,79.32
2023-04-06T00:37:11.872Z,79.43
2023-04-06T00:38:11.873Z,79.53
2023-04-06T00:39:11.878Z,79.63
2023-04-06T00:40:11.837Z,79.43
2023-04-06T00:41:11.812Z,79.25
2023-04-06T00:42:11.866Z,79.36
2023-04-06T00:43:11.819Z,79.36
2023-04-06T00:44:11.786Z,79.36
2023-04-06T00:45:11.804Z,79.36
2023-04-06T00:46:12.073Z,79.36
2023-04-06T00:47:11.759Z,79.57
2023-04-06T00:48:11.728Z,79.57
2023-04-06T00:49:11.790Z,79.36
2023-04-06T00:50:11.735Z,79.53
2023-04-06T00:51:11.705Z,79.88
2023-04-06T00:52:11.713Z,79.57
2023-04-06T00:53:11.689Z,79.25
2023-04-06T00:54:11.663Z,79.11
2023-04-06T00:55:11.688Z,79.25
2023-04-06T00:56:11.633Z,79.63
2023-04-06T00:57:11.669Z,80.09
2023-04-06T00:58:11.626Z,79.77
2023-04-06T00:59:11.653Z,79.46
2023-04-06T01:00:11.619Z,79.67
2023-04-06T01:01:11.681Z,79.88
2023-04-06T01:02:11.566Z,80.40
2023-04-06T01:03:11.593Z,80.71
2023-04-06T01:04:11.632Z,80.51
2023-04-06T01:05:11.650Z,80.61
2023-04-06T01:06:11.563Z,80.71
2023-04-06T01:07:11.540Z,81.13
2023-04-06T01:08:11.522Z,81.65
2023-04-06T01:09:11.503Z,81.38
2023-04-06T01:10:11.495Z,81.38
2023-04-06T01:11:11.508Z,81.38
2023-04-06T01:12:11.488Z,81.69
2023-04-06T01:13:11.488Z,81.48
2023-04-06T01:14:11.471Z,81.59
2023-04-06T01:15:11.506Z,82.10
2023-04-06T01:16:11.495Z,81.69
2023-04-06T01:17:11.452Z,81.59
2023-04-06T01:18:11.493Z,81.69
2023-04-06T01:19:11.397Z,81.79
2023-04-06T01:20:11.385Z,81.79
2023-04-06T01:21:11.383Z,82.10
2023-04-06T01:22:11.380Z,81.69
2023-04-06T01:23:11.412Z,81.48
2023-04-06T01:24:11.340Z,81.69
2023-04-06T01:25:11.323Z,81.90
2023-04-06T01:26:11.335Z,81.79
2023-04-06T01:27:11.329Z,81.69
2023-04-06T01:28:11.283Z,81.83
2023-04-06T01:29:11.312Z,81.52
2023-04-06T01:30:11.269Z,81.73
2023-04-06T01:31:11.294Z,81.93
2023-04-06T01:32:11.271Z,81.73
2023-04-06T01:33:11.287Z,81.83
2023-04-06T01:34:11.222Z,81.93
2023-04-06T01:35:11.221Z,82.04
2023-04-06T01:36:11.199Z,82.14
2023-04-06T01:37:11.183Z,81.73
2023-04-06T01:38:11.186Z,81.83
2023-04-06T01:39:11.227Z,82.14
2023-04-06T01:40:11.170Z,82.25
2023-04-06T01:41:11.145Z,82.25
2023-04-06T01:42:11.150Z,82.14
2023-04-06T01:43:11.129Z,82.35
2023-04-06T01:44:11.210Z,82.14
2023-04-06T01:45:11.116Z,82.14
2023-04-06T01:46:11.143Z,82.14
2023-04-06T01:47:11.085Z,82.56
2023-04-06T01:48:11.109Z,82.98
2023-04-06T01:49:11.075Z,83.40
2023-04-06T01:50:11.065Z,83.29
2023-04-06T01:51:11.034Z,83.29
2023-04-06T01:52:11.029Z,83.29
2023-04-06T01:53:11.032Z,82.98
2023-04-06T01:54:10.996Z,82.81
2023-04-06T01:55:11.000Z,83.01
2023-04-06T01:56:10.984Z,83.23
2023-04-06T01:57:10.969Z,83.23
2023-04-06T01:58:10.964Z,83.23
2023-04-06T01:59:11.167Z,83.44
2023-04-06T02:00:10.978Z,83.33
2023-04-06T02:01:10.990Z,83.01
2023-04-06T02:02:10.929Z,83.23
2023-04-06T02:03:10.917Z,83.44
2023-04-06T02:04:10.883Z,83.33
2023-04-06T02:05:10.920Z,83.23
2023-04-06T02:06:10.859Z,83.54
2023-04-06T02:07:10.866Z,83.54
2023-04-06T02:08:10.846Z,83.44
2023-04-06T02:09:10.872Z,83.33
2023-04-06T02:10:10.832Z,83.33
2023-04-06T02:11:10.813Z,83.23
2023-04-06T02:12:10.803Z,83.12
2023-04-06T02:13:10.795Z,83.12
2023-04-06T02:14:10.781Z,83.18
2023-04-06T02:15:10.787Z,83.33
2023-04-06T02:16:10.824Z,83.40
2023-04-06T02:17:10.809Z,83.29
2023-04-06T02:18:10.891Z,83.40
2023-04-06T02:19:17.808Z,83.29
2023-04-06T02:20:10.704Z,83.50
2023-04-06T02:21:10.728Z,83.50
2023-04-06T02:22:10.687Z,83.29
2023-04-06T02:23:10.681Z,83.18
2023-04-06T02:24:10.659Z,83.18
2023-04-06T02:25:10.669Z,83.08
2023-04-06T02:26:10.663Z,82.77
2023-04-06T02:27:10.648Z,82.56
2023-04-06T02:28:10.643Z,82.35
2023-04-06T02:29:10.619Z,82.46
2023-04-06T02:30:10.615Z,82.46
2023-04-06T02:31:10.624Z,82.46
2023-04-06T02:32:10.659Z,82.67
2023-04-06T02:33:10.592Z,82.87
2023-04-06T02:34:10.561Z,82.98
2023-04-06T02:35:10.561Z,82.98
2023-04-06T02:36:10.524Z,82.98
2023-04-06T02:37:10.555Z,82.98
2023-04-06T02:38:10.518Z,82.98
2023-04-06T02:39:10.659Z,82.87
2023-04-06T02:40:10.503Z,82.77
2023-04-06T02:41:10.499Z,82.87
2023-04-06T02:42:10.491Z,83.08
2023-04-06T02:43:10.465Z,82.98
2023-04-06T02:44:10.446Z,83.18
2023-04-06T02:45:10.445Z,83.92
2023-04-06T02:46:10.468Z,84.12
2023-04-06T02:47:10.430Z,84.17
2023-04-06T02:48:10.423Z,84.48
2023-04-06T02:49:10.624Z,84.48
2023-04-06T02:50:10.389Z,84.17
2023-04-06T02:51:10.371Z,84.06
2023-04-06T02:52:10.399Z,84.06
2023-04-06T02:53:10.376Z,84.17
2023-04-06T02:54:10.367Z,84.48
2023-04-06T02:55:10.337Z,84.69
2023-04-06T02:56:10.317Z,85.11
2023-04-06T02:57:10.330Z,85.21
2023-04-06T02:58:10.339Z,85.42
2023-04-06T02:59:10.543Z,85.42
2023-04-06T03:00:10.266Z,85.21
2023-04-06T03:01:10.413Z,85.21
2023-04-06T03:02:10.234Z,85.11
2023-04-06T03:03:10.306Z,85.00
2023-04-06T03:04:10.253Z,84.73
2023-04-06T03:05:10.245Z,84.94
2023-04-06T03:06:10.189Z,85.25
2023-04-06T03:07:10.197Z,85.67
2023-04-06T03:08:10.209Z,85.35
2023-04-06T03:09:10.303Z,85.25
2023-04-06T03:10:10.163Z,85.14
2023-04-06T03:11:10.158Z,85.56
2023-04-06T03:12:10.482Z,85.46
2023-04-06T03:13:10.154Z,85.56
2023-04-06T03:14:10.141Z,85.35
2023-04-06T03:15:10.109Z,84.94
2023-04-06T03:16:10.140Z,85.14
2023-04-06T03:17:10.086Z,84.97
2023-04-06T03:18:10.105Z,85.08
2023-04-06T03:19:10.348Z,85.39
2023-04-06T03:20:10.038Z,85.71
2023-04-06T03:21:10.046Z,85.91
2023-04-06T03:22:10.020Z,85.81
2023-04-06T03:23:10.059Z,85.91
2023-04-06T03:24:10.029Z,86.13
2023-04-06T03:25:09.990Z,86.13
2023-04-06T03:26:09.980Z,86.44
2023-04-06T03:27:09.971Z,86.23
2023-04-06T03:28:09.953Z,86.16
2023-04-06T03:29:10.156Z,86.16
2023-04-06T03:30:09.936Z,86.27
2023-04-06T03:31:09.926Z,86.06
2023-04-06T03:32:11.005Z,86.16
2023-04-06T03:33:09.897Z,86.16
2023-04-06T03:34:09.882Z,86.37
2023-04-06T03:35:09.893Z,86.27
2023-04-06T03:36:09.892Z,86.27
2023-04-06T03:37:10.898Z,86.16
2023-04-06T03:38:09.843Z,86.06
2023-04-06T03:39:10.038Z,85.96
2023-04-06T03:40:09.832Z,86.06
2023-04-06T03:41:09.838Z,86.16
2023-04-06T03:42:09.839Z,86.27
2023-04-06T03:43:09.789Z,86.52
2023-04-06T03:44:09.767Z,86.69
2023-04-06T03:45:09.788Z,86.58
2023-04-06T03:46:09.823Z,86.58
2023-04-06T03:47:09.747Z,86.58
2023-04-06T03:48:09.804Z,86.37
2023-04-06T03:49:09.974Z,86.10
2023-04-06T03:50:09.695Z,85.99
2023-04-06T03:51:09.720Z,86.20
2023-04-06T03:52:09.743Z,86.20
2023-04-06T03:53:09.698Z,86.20
2023-04-06T03:54:09.690Z,85.99
2023-04-06T03:55:09.701Z,86.20
2023-04-06T03:56:09.706Z,86.20
2023-04-06T03:57:09.726Z,86.10
2023-04-06T03:58:09.670Z,85.99
2023-04-06T03:59:10.040Z,86.20
2023-04-06T04:00:09.591Z,86.52
2023-04-06T04:01:09.609Z,86.72
2023-04-06T04:02:09.617Z,86.93
2023-04-06T04:03:09.800Z,87.04
2023-04-06T04:04:09.541Z,86.93
2023-04-06T04:05:09.617Z,86.72
2023-04-06T04:06:09.534Z,86.52
2023-04-06T04:07:09.528Z,86.62
2023-04-06T04:08:09.592Z,86.41
2023-04-06T04:09:09.726Z,86.41
2023-04-06T04:10:09.480Z,86.52
2023-04-06T04:11:09.482Z,86.62
2023-04-06T04:12:09.450Z,86.72
2023-04-06T04:13:09.459Z,86.72
2023-04-06T04:14:09.463Z,86.52
2023-04-06T04:15:09.440Z,86.52
2023-04-06T04:16:09.477Z,86.52
2023-04-06T04:17:09.411Z,86.31
2023-04-06T04:18:09.462Z,86.41
2023-04-06T04:19:09.722Z,86.52
2023-04-06T04:20:09.381Z,86.62
2023-04-06T04:21:09.371Z,86.62
2023-04-06T04:22:09.356Z,86.52
2023-04-06T04:23:09.414Z,86.31
2023-04-06T04:24:09.373Z,86.31
2023-04-06T04:25:09.363Z,86.41
2023-04-06T04:26:09.310Z,86.31
2023-04-06T04:27:09.312Z,86.41
2023-04-06T04:28:09.285Z,86.41
2023-04-06T04:29:09.653Z,86.41
2023-04-06T04:30:09.288Z,86.41
2023-04-06T04:31:09.278Z,86.41
2023-04-06T04:32:09.311Z,86.52
2023-04-06T04:33:09.307Z,86.62
2023-04-06T04:34:09.273Z,86.83
2023-04-06T04:35:09.236Z,86.83
2023-04-06T04:36:09.296Z,86.93
2023-04-06T04:37:09.207Z,87.04
2023-04-06T04:38:09.197Z,86.93
2023-04-06T04:39:09.386Z,86.93
2023-04-06T04:40:09.179Z,86.93
2023-04-06T04:41:09.174Z,86.83
2023-04-06T04:42:09.137Z,86.72
2023-04-06T04:43:09.148Z,87.04
2023-04-06T04:44:09.108Z,87.15
2023-04-06T04:45:09.171Z,87.25
2023-04-06T04:46:09.172Z,87.35
2023-04-06T04:47:09.100Z,87.46
2023-04-06T04:48:09.109Z,87.56
2023-04-06T04:49:09.346Z,87.56
2023-04-06T04:50:09.044Z,87.66
2023-04-06T04:51:09.064Z,87.56
2023-04-06T04:52:09.022Z,87.46
2023-04-06T04:53:09.029Z,87.35
2023-04-06T04:54:09.121Z,87.56
2023-04-06T04:55:09.073Z,87.77
2023-04-06T04:56:08.987Z,87.66
2023-04-06T04:57:08.985Z,87.77
2023-04-06T04:58:08.977Z,87.66
2023-04-06T04:59:09.175Z,87.77
2023-04-06T05:00:08.963Z,87.66
2023-04-06T05:01:09.036Z,87.88
2023-04-06T05:02:09.241Z,87.88
2023-04-06T05:03:09.275Z,87.77
2023-04-06T05:04:09.895Z,87.88
2023-04-06T05:05:09.542Z,87.98
2023-04-06T05:06:09.677Z,87.88
2023-04-06T05:07:08.858Z,87.66
2023-04-06T05:08:08.919Z,87.56
2023-04-06T05:09:09.056Z,87.46
2023-04-06T05:10:08.857Z,87.56
2023-04-06T05:11:08.839Z,87.56
2023-04-06T05:12:08.848Z,87.46
2023-04-06T05:13:08.793Z,87.77
2023-04-06T05:14:08.964Z,88.19
2023-04-06T05:15:08.925Z,88.19
2023-04-06T05:16:08.881Z,87.88
2023-04-06T05:17:08.764Z,87.66
2023-04-06T05:18:08.890Z,87.66
2023-04-06T05:19:09.038Z,87.46
2023-04-06T05:20:08.745Z,87.25
2023-04-06T05:21:08.740Z,87.25
2023-04-06T05:22:08.731Z,87.04
2023-04-06T05:23:08.704Z,87.35
2023-04-06T05:24:08.828Z,87.46
2023-04-06T05:25:08.678Z,87.15
2023-04-06T05:26:08.680Z,87.15
2023-04-06T05:27:08.634Z,87.15
2023-04-06T05:28:08.649Z,87.35
2023-04-06T05:29:08.864Z,87.66
2023-04-06T05:30:08.635Z,87.98
2023-04-06T05:31:08.645Z,88.09
2023-04-06T05:32:08.618Z,87.88
2023-04-06T05:33:08.632Z,87.88
2023-04-06T05:34:08.591Z,87.98
2023-04-06T05:35:08.589Z,87.88
2023-04-06T05:36:08.550Z,87.88
2023-04-06T05:37:08.532Z,88.09
2023-04-06T05:38:08.534Z,88.09
2023-04-06T05:39:08.811Z,87.88
2023-04-06T05:40:08.555Z,87.63
2023-04-06T05:41:08.516Z,87.52
2023-04-06T05:42:08.475Z,87.42
2023-04-06T05:43:08.449Z,87.63
2023-04-06T05:44:08.478Z,87.73
2023-04-06T05:45:08.440Z,87.63
2023-04-06T05:46:09.026Z,87.84
2023-04-06T05:47:08.410Z,87.84
2023-04-06T05:48:08.463Z,87.94
2023-04-06T05:49:08.813Z,88.15
2023-04-06T05:50:08.480Z,88.26
2023-04-06T05:51:08.359Z,88.15
2023-04-06T05:52:08.397Z,87.94
2023-04-06T05:53:08.351Z,87.73
2023-04-06T05:54:08.758Z,87.84
2023-04-06T05:55:10.224Z,87.63
2023-04-06T05:56:08.577Z,87.59
2023-04-06T05:57:08.324Z,87.59
2023-04-06T05:58:08.361Z,87.27
2023-04-06T05:59:08.693Z,87.07
2023-04-06T06:00:08.332Z,86.85
2023-04-06T06:01:08.583Z,86.96
2023-04-06T06:02:08.455Z,86.75
2023-04-06T06:03:08.439Z,86.65
2023-04-06T06:04:08.380Z,86.75
2023-04-06T06:05:08.441Z,86.65
2023-04-06T06:06:08.380Z,86.51
2023-04-06T06:07:08.449Z,86.51
2023-04-06T06:08:08.427Z,86.51
2023-04-06T06:09:08.671Z,86.61
2023-04-06T06:10:08.424Z,86.51
2023-04-06T06:11:08.208Z,86.40
2023-04-06T06:12:08.219Z,86.36
2023-04-06T06:13:08.123Z,86.25
2023-04-06T06:14:08.130Z,86.25
2023-04-06T06:15:08.112Z,86.25
2023-04-06T06:16:08.130Z,86.25
2023-04-06T06:17:08.070Z,86.25
2023-04-06T06:18:08.200Z,86.25
2023-04-06T06:19:08.321Z,86.15
2023-04-06T06:20:08.067Z,86.00
2023-04-06T06:21:08.030Z,86.00
2023-04-06T06:22:08.012Z,86.11
2023-04-06T06:23:08.424Z,86.11
2023-04-06T06:24:08.014Z,86.00
2023-04-06T06:25:07.984Z,85.90
2023-04-06T06:26:07.992Z,85.49
2023-04-06T06:27:07.965Z,85.24
2023-04-06T06:28:07.991Z,85.03
2023-04-06T06:29:08.216Z,84.92
2023-04-06T06:30:07.973Z,84.82
2023-04-06T06:31:07.983Z,84.92
2023-04-06T06:32:07.944Z,84.72
2023-04-06T06:33:08.045Z,84.36
2023-04-06T06:34:07.945Z,84.05
2023-04-06T06:35:07.892Z,83.95
2023-04-06T06:36:07.884Z,83.84
2023-04-06T06:37:07.855Z,83.53
2023-04-06T06:38:07.861Z,83.42
2023-04-06T06:39:08.301Z,83.07
2023-04-06T06:40:07.883Z,82.97
2023-04-06T06:41:07.833Z,83.07
2023-04-06T06:42:07.810Z,82.72
2023-04-06T06:43:07.824Z,82.62
2023-04-06T06:44:08.016Z,82.51
2023-04-06T06:45:07.809Z,82.31
2023-04-06T06:46:07.824Z,82.10
2023-04-06T06:47:07.765Z,82.06
2023-04-06T06:48:07.791Z,82.06
2023-04-06T06:49:07.736Z,81.54
2023-04-06T06:50:07.733Z,81.33
2023-04-06T06:51:07.747Z,80.77
2023-04-06T06:52:07.700Z,80.57
2023-04-06T06:53:07.840Z,80.57
2023-04-06T06:54:08.140Z,80.36
2023-04-06T06:55:07.696Z,80.84
2023-04-06T06:56:07.665Z,80.74
2023-04-06T06:57:07.665Z,80.43
2023-04-06T06:58:07.651Z,80.29
2023-04-06T06:59:07.635Z,80.39
2023-04-06T07:00:07.607Z,80.18
2023-04-06T07:01:07.602Z,79.97
2023-04-06T07:02:07.591Z,80.15
2023-04-06T07:03:07.733Z,80.25
2023-04-06T07:04:07.914Z,79.83
2023-04-06T07:05:16.142Z,79.72
2023-04-06T07:06:08.531Z,79.27
2023-04-06T07:07:07.525Z,79.17
2023-04-06T07:08:07.545Z,78.96
2023-04-06T07:09:07.548Z,78.92
2023-04-06T07:10:07.502Z,78.82
2023-04-06T07:11:07.487Z,78.61
2023-04-06T07:12:07.491Z,78.30
2023-04-06T07:13:07.476Z,78.27
2023-04-06T07:14:07.885Z,78.27
2023-04-06T07:15:07.525Z,78.27
2023-04-06T07:16:07.489Z,78.68
2023-04-06T07:17:07.528Z,78.55
2023-04-06T07:18:07.504Z,78.44
2023-04-06T07:19:07.376Z,78.13
2023-04-06T07:20:07.617Z,75.29
2023-04-06T07:21:07.415Z,74.36
2023-04-06T07:22:07.357Z,73.39
2023-04-06T07:23:07.365Z,72.15
2023-04-06T07:24:07.528Z,71.70
2023-04-06T07:25:07.574Z,70.97
2023-04-06T07:26:07.456Z,69.70
2023-04-06T07:27:07.318Z,68.66
2023-04-06T07:28:07.361Z,67.49
2023-04-06T07:29:07.291Z,67.46
2023-04-06T07:30:07.328Z,67.77
2023-04-06T07:31:07.259Z,67.36
2023-04-06T07:32:07.351Z,66.29
2023-04-06T07:33:08.025Z,65.05
2023-04-06T07:34:07.475Z,63.60
2023-04-06T07:35:07.243Z,63.37
2023-04-06T07:36:07.299Z,63.47
2023-04-06T07:37:07.199Z,62.54
2023-04-06T07:38:07.211Z,61.82
2023-04-06T07:39:07.173Z,61.27
2023-04-06T07:40:07.161Z,61.17
2023-04-06T07:41:07.148Z,61.58
2023-04-06T07:42:07.172Z,61.89
2023-04-06T07:43:07.159Z,61.27
2023-04-06T07:44:07.623Z,60.93
2023-04-06T07:45:07.112Z,60.21
2023-04-06T07:46:07.150Z,59.28
2023-04-06T07:47:07.078Z,59.39
2023-04-06T07:48:07.127Z,59.80
2023-04-06T07:49:07.055Z,59.77
2023-04-06T07:50:07.045Z,59.15
2023-04-06T07:51:07.030Z,59.25
2023-04-06T07:52:07.065Z,59.15
2023-04-06T07:53:07.035Z,58.61
2023-04-06T07:54:07.300Z,59.33
2023-04-06T07:55:07.000Z,59.84
2023-04-06T07:56:06.985Z,58.40
2023-04-06T07:57:06.969Z,58.30
2023-04-06T07:58:07.275Z,57.99
2023-04-06T07:59:06.957Z,57.34
2023-04-06T08:00:06.938Z,57.86
2023-04-06T08:01:06.948Z,57.55
2023-04-06T08:02:06.979Z,57.45
2023-04-06T08:03:07.023Z,58.06
2023-04-06T08:04:07.157Z,58.37
2023-04-06T08:05:06.949Z,57.45
2023-04-06T08:06:07.199Z,57.03
2023-04-06T08:07:07.018Z,57.76
2023-04-06T08:08:06.958Z,57.01
2023-04-06T08:09:07.180Z,57.52
2023-04-06T08:10:06.955Z,56.70
2023-04-06T08:11:07.016Z,56.36
2023-04-06T08:12:06.965Z,56.88
2023-04-06T08:13:06.985Z,56.77
2023-04-06T08:14:07.303Z,56.98
2023-04-06T08:15:07.078Z,56.67
2023-04-06T08:16:07.015Z,56.67
2023-04-06T08:17:07.013Z,56.46
2023-04-06T08:18:07.025Z,56.85
2023-04-06T08:19:07.058Z,56.85
2023-04-06T08:20:07.121Z,56.75
2023-04-06T08:21:07.092Z,56.85
2023-04-06T08:22:07.004Z,58.06
2023-04-06T08:23:07.021Z,56.93
2023-04-06T08:24:07.074Z,56.31
2023-04-06T08:25:07.031Z,56.08
2023-04-06T08:26:06.663Z,55.46
2023-04-06T08:27:06.642Z,55.57
2023-04-06T08:28:06.625Z,55.87
2023-04-06T08:29:06.602Z,54.82
2023-04-06T08:30:06.607Z,55.13
2023-04-06T08:31:06.615Z,53.79
2023-04-06T08:32:06.591Z,53.38
2023-04-06T08:33:06.703Z,54.00
2023-04-06T08:34:07.083Z,55.43
2023-04-06T08:35:06.552Z,57.06
2023-04-06T08:36:13.603Z,56.10
2023-04-06T08:37:06.516Z,55.26
2023-04-06T08:38:06.496Z,54.85
2023-04-06T08:39:08.254Z,54.00
2023-04-06T08:40:06.510Z,54.38
2023-04-06T08:41:08.201Z,53.33
2023-04-06T08:42:06.518Z,53.03
2023-04-06T08:43:06.447Z,53.92
2023-04-06T08:44:06.553Z,53.69
2023-04-06T08:45:06.435Z,53.59
2023-04-06T08:46:06.441Z,53.05
2023-04-06T08:47:06.417Z,52.31
2023-04-06T08:48:06.467Z,50.88
2023-04-06T08:49:06.390Z,50.45
2023-04-06T08:50:06.389Z,50.96
2023-04-06T08:51:06.369Z,51.14
2023-04-06T08:52:06.351Z,51.01
2023-04-06T08:53:06.330Z,49.99
2023-04-06T08:54:06.428Z,49.55
2023-04-06T08:55:06.312Z,50.78
2023-04-06T08:56:06.362Z,50.60
2023-04-06T08:57:06.308Z,50.89
2023-04-06T08:58:06.278Z,51.17
2023-04-06T08:59:06.281Z,50.94
2023-04-06T09:00:06.299Z,50.63
2023-04-06T09:01:06.226Z,48.67
2023-04-06T09:02:06.312Z,48.59
2023-04-06T09:03:06.328Z,48.69
2023-04-06T09:04:08.343Z,48.98
2023-04-06T09:05:06.268Z,47.86
2023-04-06T09:06:06.191Z,48.67
2023-04-06T09:07:06.210Z,49.29
2023-04-06T09:08:06.156Z,48.57
2023-04-06T09:09:06.155Z,48.57
2023-04-06T09:10:06.144Z,48.88
2023-04-06T09:11:06.164Z,48.24
2023-04-06T09:12:06.120Z,48.65
2023-04-06T09:13:06.106Z,48.24
2023-04-06T09:14:06.284Z,47.50
2023-04-06T09:15:06.078Z,47.91
2023-04-06T09:16:06.157Z,47.17
2023-04-06T09:17:06.059Z,47.38
2023-04-06T09:18:06.068Z,46.20
2023-04-06T09:19:06.075Z,48.41
2023-04-06T09:20:06.272Z,49.13
2023-04-06T09:21:06.025Z,50.04
2023-04-06T09:22:06.027Z,51.68
2023-04-06T09:23:05.995Z,49.00
2023-04-06T09:24:06.074Z,49.43
2023-04-06T09:25:05.990Z,48.72
2023-04-06T09:26:05.944Z,49.30
2023-04-06T09:27:05.953Z,48.80
2023-04-06T09:28:05.936Z,48.88
2023-04-06T09:29:05.949Z,47.53
2023-04-06T09:30:05.924Z,46.81
2023-04-06T09:31:05.923Z,47.45
2023-04-06T09:32:05.919Z,49.05
2023-04-06T09:33:05.951Z,49.46
2023-04-06T09:34:05.874Z,47.32
2023-04-06T09:35:05.871Z,47.55
2023-04-06T09:36:05.891Z,48.21
2023-04-06T09:37:05.830Z,50.25
2023-04-06T09:38:05.820Z,50.04
2023-04-06T09:39:05.886Z,49.33
2023-04-06T09:40:05.836Z,48.84
2023-04-06T09:41:05.807Z,49.96
2023-04-06T09:42:05.802Z,51.98
2023-04-06T09:43:05.762Z,49.69
2023-04-06T09:44:06.011Z,49.37
2023-04-06T09:45:05.759Z,50.34
2023-04-06T09:46:05.778Z,50.03
2023-04-06T09:47:05.894Z,47.97
2023-04-06T09:48:05.759Z,47.31
2023-04-06T09:49:05.864Z,46.37
2023-04-06T09:50:05.682Z,45.95
2023-04-06T09:51:05.699Z,45.93
2023-04-06T09:52:05.664Z,44.91
2023-04-06T09:53:05.691Z,45.83
2023-04-06T09:54:05.739Z,46.03
2023-04-06T09:55:05.648Z,46.05
2023-04-06T09:56:05.657Z,47.55
2023-04-06T09:57:05.676Z,45.93
2023-04-06T09:58:05.600Z,43.59
2023-04-06T09:59:05.620Z,42.92
2023-04-06T10:00:05.580Z,45.79
2023-04-06T10:01:05.611Z,46.70
2023-04-06T10:02:05.580Z,45.76
2023-04-06T10:03:07.074Z,44.14
2023-04-06T10:04:05.752Z,44.45
2023-04-06T10:05:05.540Z,44.16
2023-04-06T10:06:05.529Z,45.00
2023-04-06T10:07:05.596Z,45.50
2023-04-06T10:08:05.463Z,46.40
2023-04-06T10:09:05.489Z,47.19
2023-04-06T10:10:05.461Z,48.39
2023-04-06T10:11:05.454Z,46.13
2023-04-06T10:12:05.438Z,45.89
2023-04-06T10:13:05.453Z,45.66
2023-04-06T10:14:05.442Z,44.44
2023-04-06T10:15:05.408Z,43.53
2023-04-06T10:16:05.400Z,44.12
2023-04-06T10:17:05.410Z,42.80
2023-04-06T10:18:05.447Z,42.00
2023-04-06T10:19:05.409Z,42.11
2023-04-06T10:20:05.333Z,43.20
2023-04-06T10:21:05.361Z,42.17
2023-04-06T10:22:05.308Z,42.98
2023-04-06T10:23:05.316Z,42.88
2023-04-06T10:24:05.320Z,43.69
2023-04-06T10:25:05.287Z,42.57
2023-04-06T10:26:05.262Z,42.55
2023-04-06T10:27:05.298Z,41.52
2023-04-06T10:28:05.233Z,41.63
2023-04-06T10:29:05.249Z,41.80
2023-04-06T10:30:05.275Z,41.32
2023-04-06T10:31:05.217Z,41.80
2023-04-06T10:32:05.248Z,39.19
2023-04-06T10:33:05.245Z,40.71
2023-04-06T10:34:05.204Z,41.93
2023-04-06T10:35:05.211Z,41.12
2023-04-06T10:36:05.259Z,40.51
2023-04-06T10:37:05.157Z,40.49
2023-04-06T10:38:05.142Z,39.78
2023-04-06T10:39:05.176Z,40.19
2023-04-06T10:40:05.141Z,39.48
2023-04-06T10:41:05.135Z,40.91
2023-04-06T10:42:05.098Z,41.52
2023-04-06T10:43:05.144Z,41.80
2023-04-06T10:44:05.071Z,39.28
2023-04-06T10:45:05.060Z,40.09
2023-04-06T10:46:05.120Z,39.78
2023-04-06T10:47:05.073Z,39.98
2023-04-06T10:48:05.068Z,40.49
2023-04-06T10:49:05.027Z,39.62
2023-04-06T10:50:05.011Z,40.43
2023-04-06T10:51:05.004Z,41.63
2023-04-06T10:52:04.983Z,41.71
2023-04-06T10:53:04.983Z,41.38
2023-04-06T10:54:04.971Z,39.56
2023-04-06T10:55:05.031Z,39.75
2023-04-06T10:56:04.962Z,38.84
2023-04-06T10:57:04.929Z,38.57
2023-04-06T10:58:04.919Z,39.37
2023-04-06T10:59:04.959Z,39.29
2023-04-06T11:00:04.929Z,41.02
2023-04-06T11:01:04.958Z,41.09
2023-04-06T11:02:04.863Z,39.66
2023-04-06T11:03:04.913Z,38.73
2023-04-06T11:04:04.864Z,38.33
2023-04-06T11:05:04.852Z,37.92
2023-04-06T11:06:04.849Z,39.06
2023-04-06T11:07:04.824Z,36.34
2023-04-06T11:08:04.798Z,37.45
2023-04-06T11:09:04.798Z,38.18
2023-04-06T11:10:15.583Z,37.89
2023-04-06T11:11:05.835Z,39.35
2023-04-06T11:12:04.751Z,40.56
2023-04-06T11:13:04.763Z,41.14
2023-04-06T11:14:04.725Z,38.99
2023-04-06T11:15:04.726Z,39.68
2023-04-06T11:16:04.700Z,39.48
2023-04-06T11:17:04.804Z,38.55
2023-04-06T11:18:04.735Z,39.34
2023-04-06T11:19:04.716Z,39.15
2023-04-06T11:20:04.731Z,38.63
2023-04-06T11:21:04.654Z,39.04
2023-04-06T11:22:04.662Z,37.34
2023-04-06T11:23:04.635Z,37.94
2023-04-06T11:24:04.607Z,38.75
2023-04-06T11:25:04.631Z,38.06
2023-04-06T11:26:04.582Z,38.59
2023-04-06T11:27:04.631Z,38.40
2023-04-06T11:28:04.564Z,39.90
2023-04-06T11:29:04.566Z,39.78
2023-04-06T11:30:04.540Z,38.14
2023-04-06T11:31:04.569Z,37.74
2023-04-06T11:32:04.630Z,37.86
2023-04-06T11:33:04.595Z,37.98
2023-04-06T11:34:04.509Z,37.18
2023-04-06T11:35:04.503Z,37.61
2023-04-06T11:36:04.543Z,38.13
2023-04-06T11:37:04.479Z,37.02
2023-04-06T11:38:04.518Z,38.03
2023-04-06T11:39:04.467Z,37.42
2023-04-06T11:40:04.447Z,37.51
2023-04-06T11:41:04.429Z,38.01
2023-04-06T11:42:06.843Z,38.32
2023-04-06T11:43:04.404Z,37.46
2023-04-06T11:44:04.421Z,38.27
2023-04-06T11:45:04.391Z,41.54
2023-04-06T11:46:04.439Z,39.47
2023-04-06T11:47:04.409Z,39.25
2023-04-06T11:48:04.418Z,40.04
2023-04-06T11:49:04.448Z,38.54
2023-04-06T11:50:04.352Z,39.06
2023-04-06T11:51:04.329Z,38.37
2023-04-06T11:52:04.336Z,38.90
2023-04-06T11:53:04.411Z,40.75
2023-04-06T11:54:04.282Z,41.35
2023-04-06T11:55:04.281Z,40.42
2023-04-06T11:56:04.303Z,40.42
2023-04-06T11:57:04.264Z,40.40
2023-04-06T11:58:04.254Z,41.72
2023-04-06T11:59:04.257Z,41.50
2023-04-06T12:00:04.252Z,39.86
2023-04-06T12:01:04.205Z,39.15
2023-04-06T12:02:04.210Z,39.35
2023-04-06T12:03:04.277Z,39.33
2023-04-06T12:04:04.285Z,40.14
2023-04-06T12:05:04.181Z,39.33
2023-04-06T12:06:04.157Z,38.32
2023-04-06T12:07:04.123Z,38.72
2023-04-06T12:08:04.129Z,39.53
2023-04-06T12:09:04.120Z,38.70
2023-04-06T12:10:04.105Z,39.29
2023-04-06T12:11:04.168Z,39.50
2023-04-06T12:12:04.081Z,38.67
2023-04-06T12:13:04.312Z,37.76
2023-04-06T12:14:04.053Z,36.43
2023-04-06T12:15:04.044Z,36.34
2023-04-06T12:16:04.080Z,36.54
2023-04-06T12:17:04.060Z,36.87
2023-04-06T12:18:04.051Z,37.37
2023-04-06T12:19:04.000Z,37.20
2023-04-06T12:20:13.417Z,39.33
2023-04-06T12:21:04.999Z,40.63
2023-04-06T12:22:03.967Z,39.90
2023-04-06T12:23:03.953Z,38.37
2023-04-06T12:24:03.935Z,37.27
2023-04-06T12:25:03.945Z,36.56
2023-04-06T12:26:03.912Z,37.69
2023-04-06T12:27:10.132Z,37.98
2023-04-06T12:28:04.907Z,36.76
2023-04-06T12:29:03.908Z,36.76
2023-04-06T12:30:03.860Z,39.17
2023-04-06T12:31:03.934Z,39.26
2023-04-06T12:32:03.898Z,35.61
2023-04-06T12:33:03.906Z,37.23
2023-04-06T12:34:03.837Z,34.40
2023-04-06T12:35:03.819Z,33.49
2023-04-06T12:36:03.809Z,33.10
2023-04-06T12:37:03.853Z,32.20
2023-04-06T12:38:03.801Z,32.20
2023-04-06T12:39:03.781Z,32.64
2023-04-06T12:40:03.745Z,33.45
2023-04-06T12:41:03.760Z,32.96
2023-04-06T12:42:03.811Z,33.26
2023-04-06T12:43:03.720Z,33.86
2023-04-06T12:44:03.736Z,34.55
2023-04-06T12:45:03.746Z,34.33
2023-04-06T12:46:03.721Z,33.30
2023-04-06T12:47:03.709Z,33.29
2023-04-06T12:48:03.704Z,31.78
2023-04-06T12:49:03.692Z,32.29
2023-04-06T12:50:03.639Z,33.71
2023-04-06T12:51:03.662Z,33.50
2023-04-06T12:52:03.626Z,33.40